Bookmark and Share
Track history (hours):
 

F/V Fleur Des Vagues

Last reported at 2014-Apr-24 05:33 UTC. Time now 2014-Apr-24 05:58 UTC.
Position N 46°26' W 001°51'.

Length 16 m.

Type: Fishing. MMSI: 227893000.

NotesDate/timePositionNaut miles runAvg speedWind from/ knotsBaromVisibWave heightAir tempDewpointWater temp
2014-Apr-24 05:33N 46°26' W 001°51'2 1.6
2014-Apr-24 04:33N 46°27' W 001°52'3 2.7
2014-Apr-24 03:33N 46°24' W 001°51'2 2.0
2014-Apr-24 02:34N 46°26' W 001°52'1 0.9
2014-Apr-24 01:33N 46°25' W 001°52'3 3.4
2014-Apr-24 00:33N 46°27' W 001°48'3 2.6
2014-Apr-23 23:33N 46°30' W 001°47'0 0.0
2014-Apr-23 22:33N 46°30' W 001°47'0 0.0
2014-Apr-23 21:33N 46°30' W 001°47'0 0.0
2014-Apr-23 20:33N 46°30' W 001°47'0 0.0
2014-Apr-23 19:34N 46°30' W 001°47'0 0.0
2014-Apr-23 18:34N 46°30' W 001°47'0 0.0
2014-Apr-23 17:33N 46°30' W 001°47'0 0.0
2014-Apr-23 16:34N 46°30' W 001°47'0 0.0
2014-Apr-23 15:33N 46°30' W 001°47'0 0.0
2014-Apr-23 14:33N 46°30' W 001°47'0 0.0
2014-Apr-23 12:33N 46°30' W 001°47'1 0.9
2014-Apr-23 11:33N 46°29' W 001°47'5 4.9
2014-Apr-23 10:34N 46°25' W 001°51'2 2.0
2014-Apr-23 09:33N 46°27' W 001°52'7 6.6
2014-Apr-23 08:34N 46°20' W 001°50'5 5.2
2014-Apr-23 07:31N 46°15' W 001°46'0 0.4
2014-Apr-23 06:33N 46°15' W 001°46'2 1.7
2014-Apr-23 05:33N 46°17' W 001°47'2 2.3
2014-Apr-23 04:33N 46°15' W 001°46'1 0.7
2014-Apr-23 03:28N 46°15' W 001°46'1 1.5
2014-Apr-23 02:33N 46°17' W 001°47'1 0.9
2014-Apr-23 01:32N 46°16' W 001°46'1 0.7
2014-Apr-23 00:29N 46°15' W 001°45'2 2.2
2014-Apr-22 23:33N 46°17' W 001°46'0 0.1
2014-Apr-22 22:33N 46°17' W 001°47'0 0.0
2014-Apr-22 21:33N 46°17' W 001°47'0 0.0
2014-Apr-22 20:33N 46°17' W 001°47'0 0.0
2014-Apr-22 19:33N 46°17' W 001°47'0 0.0
2014-Apr-22 18:33N 46°17' W 001°47'0 0.0
2014-Apr-22 17:33N 46°17' W 001°47'0 0.0
2014-Apr-22 16:33N 46°17' W 001°47'0 0.0
2014-Apr-22 15:33N 46°17' W 001°47'0 0.1
2014-Apr-22 14:33N 46°17' W 001°47'0 0.0
2014-Apr-22 13:33N 46°17' W 001°47'0 0.0
2014-Apr-22 12:33N 46°17' W 001°47'2 1.5
2014-Apr-22 11:31N 46°16' W 001°46'1 0.9
2014-Apr-22 10:33N 46°15' W 001°46'3 2.6
2014-Apr-22 09:33N 46°15' W 001°42'9 9.3
2014-Apr-22 08:33N 46°24' W 001°45'6 5.7
2014-Apr-22 07:33N 46°30' W 001°47'0 0.2
2014-Apr-22 06:33N 46°30' W 001°47'0 0.0
2014-Apr-22 05:33N 46°30' W 001°47'  
2014-Apr-18 20:16N 46°30' W 001°47'  

Dump ship's entire track history

sailing weather and tide predictions

F/V Fleur Des Vagues — FPEJ — position and weather